Airfield :
LOGIN :

Register | Disclaimer

   EN    FR    IT 

 










Legend :    VFR   Marginal VFR   IFR   Intensive IFR   Very Intensive IFR
Visi :
Ceiling :
>= 8 km
>= 3000ft
5 to 8 km
1000 to 3000 ft
1500m to 5 km
500 to 1000 ft
800 to 1500m
200 to 500 ft
< 800m
< 200 ft
Symbols :   Thunderstorms  Fog  Heavy snow  Heavy precipitations  Wind > 20 kt
SIGMETs :     Misc.  Thunderstorms  Icing  Turbulence  Mountain Waves  Volcanic Ashes







- Airport Elevation : 289 ft
- IATA code : ZAD


LDZD - Zadar

CURRENT METAR :
  • 161800Z VRB01KT 9999 FEW050 26/21 Q1009 NOSIG

EXPIRED METARs :
  • 161730Z 21005KT 120V270 9999 FEW050 26/21 Q1010 NOSIG
  • 161700Z 23006KT 200V260 9999 FEW050 27/20 Q1011 NOSIG
  • 161630Z 23008KT 190V260 9999 FEW050 28/18 Q1011 NOSIG
  • 161600Z 23008KT 190V280 9999 FEW050 28/18 Q1011 NOSIG
  • 161530Z 24008KT 190V290 9999 FEW050 29/17 Q1011 NOSIG

TAF TAF LDZD
Valid from the 16 at 18:00 until the 17 at 18:00 UTC


161725Z 1618/1718 VRB02KT 9999 FEW040 TX27/1713Z TN17/1706Z
BECMG 1700/1702 14006KT
PROB40
TEMPO 1700/1707 3000 TSRA SCT030CB BKN040
BECMG 1711/1713 30008KT
No reported NOTAMs for that airfield.



MET'MAP, your aeronautical weather chart ! - Copyright ORBIFLY December 2007 - Disclaimer

ORBIFLY MET'MAP TEAM :

Programming & Development : Alexandra Zaïnal
Concept & Development : Baudouin d'Aumeries
Co-Development & Prog : Marc-Olivier Méhu
Technical & hardware support : Manuel Goepfert

Contact : metmap@orbifly.com




SOURCES & CREDITS :

   NOAA